createdAt,value
2022-07-25T00:02:01.392Z,9.70
2022-07-25T00:04:30.069Z,9.27
2022-07-25T00:06:57.975Z,10.27
2022-07-25T00:09:25.752Z,9.73
2022-07-25T00:11:53.556Z,9.93
2022-07-25T00:14:21.413Z,10.15
2022-07-25T00:16:49.171Z,8.80
2022-07-25T00:19:17.382Z,10.45
2022-07-25T00:21:45.527Z,9.20
2022-07-25T00:24:13.330Z,9.85
2022-07-25T00:26:41.135Z,9.90
2022-07-25T00:29:09.109Z,9.95
2022-07-25T00:31:37.066Z,10.45
2022-07-25T00:34:05.357Z,9.88
2022-07-25T00:36:33.444Z,9.52
2022-07-25T00:39:01.256Z,11.85
2022-07-25T00:41:29.152Z,8.63
2022-07-25T00:43:57.121Z,9.85
2022-07-25T00:46:25.003Z,9.73
2022-07-25T00:48:54.923Z,9.85
2022-07-25T00:51:32.063Z,10.00
2022-07-25T00:54:00.498Z,10.13
2022-07-25T00:56:28.565Z,9.55
2022-07-25T00:58:56.855Z,9.18
2022-07-25T01:01:25.029Z,8.93
2022-07-25T01:03:53.129Z,9.85
2022-07-25T01:06:22.296Z,8.95
2022-07-25T01:08:54.203Z,9.77
2022-07-25T01:11:22.753Z,15.02
2022-07-25T01:13:50.623Z,11.05
2022-07-25T01:16:18.627Z,9.93
2022-07-25T01:18:46.536Z,10.10
2022-07-25T01:21:14.610Z,9.60
2022-07-25T01:23:43.043Z,9.27
2022-07-25T01:26:10.872Z,11.15
2022-07-25T01:28:38.675Z,10.48
2022-07-25T01:31:06.717Z,11.60
2022-07-25T01:33:34.750Z,10.23
2022-07-25T01:36:02.547Z,11.30
2022-07-25T01:38:30.323Z,10.43
2022-07-25T01:40:58.109Z,10.68
2022-07-25T01:43:25.902Z,11.77
2022-07-25T01:45:53.778Z,10.63
2022-07-25T01:48:21.682Z,10.43
2022-07-25T01:50:49.522Z,9.68
2022-07-25T01:53:17.714Z,10.32
2022-07-25T01:55:46.944Z,10.10
2022-07-25T01:58:14.793Z,11.00
2022-07-25T02:00:42.675Z,9.75
2022-07-25T02:03:28.981Z,10.52
2022-07-25T02:06:08.127Z,10.02
2022-07-25T02:08:36.086Z,10.18
2022-07-25T02:11:04.138Z,10.70
2022-07-25T02:13:31.977Z,11.32
2022-07-25T02:16:00.027Z,10.32
2022-07-25T02:18:27.792Z,10.45
2022-07-25T02:20:55.567Z,10.88
2022-07-25T02:23:29.248Z,10.93
2022-07-25T02:25:57.015Z,11.45
2022-07-25T02:28:24.937Z,10.88
2022-07-25T02:30:52.882Z,10.50
2022-07-25T02:33:20.714Z,12.68
2022-07-25T02:35:48.568Z,10.40
2022-07-25T02:38:19.826Z,13.18
2022-07-25T02:40:49.702Z,11.80
2022-07-25T02:43:19.031Z,10.50
2022-07-25T02:45:47.182Z,10.35
2022-07-25T02:48:15.099Z,10.52
2022-07-25T02:50:42.959Z,12.07
2022-07-25T02:53:10.924Z,10.43
2022-07-25T02:55:38.743Z,11.32
2022-07-25T02:58:06.832Z,10.65
2022-07-25T03:00:34.887Z,10.93
2022-07-25T03:03:02.772Z,10.60
2022-07-25T03:05:32.176Z,10.10
2022-07-25T03:07:59.976Z,10.38
2022-07-25T03:10:27.903Z,10.50
2022-07-25T03:12:55.654Z,11.60
2022-07-25T03:15:23.473Z,11.23
2022-07-25T03:17:51.323Z,10.75
2022-07-25T03:20:19.297Z,11.23
2022-07-25T03:22:48.182Z,11.13
2022-07-25T03:25:21.799Z,11.68
2022-07-25T03:27:50.349Z,10.75
2022-07-25T03:30:18.359Z,10.18
2022-07-25T03:32:46.233Z,11.35
2022-07-25T03:35:14.047Z,10.18
2022-07-25T03:37:42.354Z,11.13
2022-07-25T03:40:10.958Z,11.20
2022-07-25T03:42:38.763Z,10.70
2022-07-25T03:45:07.430Z,10.50
2022-07-25T03:47:35.244Z,11.20
2022-07-25T03:50:03.440Z,14.07
2022-07-25T03:52:31.263Z,10.90
2022-07-25T03:54:59.071Z,10.73
2022-07-25T03:57:26.827Z,10.32
2022-07-25T03:59:54.647Z,10.88
2022-07-25T04:02:22.616Z,11.52
2022-07-25T04:04:50.446Z,11.35
2022-07-25T04:07:19.249Z,12.18
2022-07-25T04:09:47.056Z,13.70
2022-07-25T04:12:14.893Z,11.85
2022-07-25T04:14:42.776Z,11.77
2022-07-25T04:17:10.873Z,11.80
2022-07-25T04:19:38.741Z,12.25
2022-07-25T04:22:06.621Z,11.07
2022-07-25T04:24:34.460Z,12.13
2022-07-25T04:27:02.401Z,11.48
2022-07-25T04:29:30.214Z,11.35
2022-07-25T04:31:58.191Z,11.25
2022-07-25T04:34:26.297Z,11.50
2022-07-25T04:36:54.046Z,11.40
2022-07-25T04:39:21.931Z,11.35
2022-07-25T04:41:49.740Z,11.27
2022-07-25T04:44:17.536Z,12.43
2022-07-25T04:46:45.287Z,11.05
2022-07-25T04:49:13.205Z,13.80
2022-07-25T04:51:41.047Z,11.00
2022-07-25T04:54:09.946Z,10.18
2022-07-25T04:56:38.106Z,12.52
2022-07-25T04:59:07.180Z,9.80
2022-07-25T05:01:35.906Z,10.75
2022-07-25T05:04:04.128Z,11.13
2022-07-25T05:06:33.211Z,9.38
2022-07-25T05:09:01.066Z,9.85
2022-07-25T05:11:28.858Z,10.13
2022-07-25T05:13:56.706Z,9.90
2022-07-25T05:16:24.607Z,9.40
2022-07-25T05:18:52.664Z,8.68
2022-07-25T05:21:20.522Z,9.35
2022-07-25T05:23:48.390Z,9.93
2022-07-25T05:26:16.669Z,10.02
2022-07-25T05:28:44.506Z,9.63
2022-07-25T05:31:12.378Z,9.55
2022-07-25T05:33:40.170Z,9.27
2022-07-25T05:36:09.141Z,9.18
2022-07-25T05:38:37.199Z,9.57
2022-07-25T05:41:05.528Z,9.27
2022-07-25T05:43:34.764Z,9.68
2022-07-25T05:46:05.230Z,8.77
2022-07-25T05:48:33.109Z,9.43
2022-07-25T05:51:00.962Z,9.65
2022-07-25T05:53:29.049Z,10.95
2022-07-25T05:55:57.105Z,9.32
2022-07-25T05:58:29.610Z,11.95
2022-07-25T06:00:58.965Z,8.80
2022-07-25T06:03:27.177Z,8.68
2022-07-25T06:05:56.836Z,8.35
2022-07-25T06:08:25.015Z,9.80
2022-07-25T06:10:52.958Z,10.45
2022-07-25T06:13:21.132Z,10.05
2022-07-25T06:15:51.437Z,9.23
2022-07-25T06:18:19.428Z,10.00
2022-07-25T06:20:47.342Z,9.50
2022-07-25T06:23:16.064Z,9.20
2022-07-25T06:25:50.022Z,8.80
2022-07-25T06:28:18.521Z,10.25
2022-07-25T06:30:48.602Z,9.82
2022-07-25T06:33:17.511Z,9.13
2022-07-25T06:35:46.062Z,9.45
2022-07-25T06:38:13.844Z,10.20
2022-07-25T06:40:41.936Z,9.50
2022-07-25T06:43:10.219Z,9.05
2022-07-25T06:45:38.417Z,9.90
2022-07-25T06:48:06.999Z,9.93
2022-07-25T06:50:34.847Z,10.15
2022-07-25T06:53:02.613Z,9.77
2022-07-25T06:55:31.386Z,12.65
2022-07-25T06:57:59.465Z,9.98
2022-07-25T07:00:27.598Z,9.35
2022-07-25T07:02:59.746Z,11.35
2022-07-25T07:05:32.066Z,9.57
2022-07-25T07:08:00.680Z,10.83
2022-07-25T07:10:29.529Z,9.90
2022-07-25T07:13:10.455Z,9.43
2022-07-25T07:15:39.642Z,10.15
2022-07-25T07:18:07.661Z,10.73
2022-07-25T07:20:35.690Z,10.50
2022-07-25T07:23:03.622Z,9.40
2022-07-25T07:25:31.579Z,11.55
2022-07-25T07:27:59.370Z,9.75
2022-07-25T07:30:52.090Z,10.95
2022-07-25T07:33:15.420Z,11.10
2022-07-25T07:35:46.457Z,9.68
2022-07-25T07:38:14.880Z,10.82
2022-07-25T07:40:42.763Z,9.73
2022-07-25T07:43:11.034Z,10.48
2022-07-25T07:45:38.881Z,11.77
2022-07-25T07:48:07.345Z,9.23
2022-07-25T07:50:35.584Z,10.25
2022-07-25T07:53:04.041Z,9.95
2022-07-25T07:55:48.953Z,9.77
2022-07-25T07:58:19.104Z,10.35
2022-07-25T08:00:49.477Z,10.55
2022-07-25T08:03:21.882Z,9.60
2022-07-25T08:05:51.852Z,9.70
2022-07-25T08:08:19.994Z,11.27
2022-07-25T08:10:49.720Z,9.23
2022-07-25T08:13:28.934Z,9.15
2022-07-25T08:16:01.092Z,9.70
2022-07-25T08:18:30.288Z,9.50
2022-07-25T08:20:58.754Z,10.73
2022-07-25T08:23:27.823Z,9.63
2022-07-25T08:25:55.685Z,9.05
2022-07-25T08:28:23.473Z,10.30
2022-07-25T08:30:51.550Z,9.95
2022-07-25T08:33:19.897Z,9.02
2022-07-25T08:35:54.740Z,9.98
2022-07-25T08:38:24.860Z,11.27
2022-07-25T08:40:54.955Z,10.38
2022-07-25T08:43:23.206Z,9.43
2022-07-25T08:45:54.676Z,10.05
2022-07-25T08:48:26.578Z,10.15
2022-07-25T08:50:57.305Z,9.33
2022-07-25T08:53:34.886Z,10.18
2022-07-25T08:56:14.834Z,12.60
2022-07-25T08:58:45.327Z,9.45
2022-07-25T09:01:14.388Z,14.15
2022-07-25T09:03:43.832Z,15.95
2022-07-25T09:06:20.935Z,9.52
2022-07-25T09:09:00.641Z,9.57
2022-07-25T09:11:36.559Z,10.15
2022-07-25T09:14:15.067Z,11.20
2022-07-25T09:16:45.505Z,10.00
2022-07-25T09:19:22.641Z,12.63
2022-07-25T09:22:07.049Z,9.60
2022-07-25T09:24:45.501Z,12.77
2022-07-25T09:27:13.361Z,9.18
2022-07-25T09:29:45.426Z,9.55
2022-07-25T09:32:22.839Z,9.13
2022-07-25T09:34:51.423Z,8.38
2022-07-25T09:37:26.445Z,8.32
2022-07-25T09:39:54.404Z,10.40
2022-07-25T09:42:32.476Z,8.10
2022-07-25T09:45:13.184Z,8.82
2022-07-25T09:47:57.778Z,8.77
2022-07-25T09:50:28.701Z,8.68
2022-07-25T09:53:00.749Z,7.53
2022-07-25T09:55:30.621Z,8.80
2022-07-25T09:57:58.792Z,8.75
2022-07-25T10:00:29.297Z,7.95
2022-07-25T10:03:18.533Z,8.10
2022-07-25T10:06:14.906Z,8.32
2022-07-25T10:08:43.487Z,9.27
2022-07-25T10:11:28.078Z,8.43
2022-07-25T10:13:56.742Z,6.78
2022-07-25T10:16:27.144Z,7.75
2022-07-25T10:18:58.998Z,7.10
2022-07-25T10:21:28.560Z,6.70
2022-07-25T10:24:11.522Z,6.18
2022-07-25T10:29:18.908Z,7.22
2022-07-25T10:31:51.187Z,6.53
2022-07-25T10:34:33.552Z,6.60
2022-07-25T10:37:16.708Z,6.38
2022-07-25T10:42:16.601Z,6.75
2022-07-25T10:44:49.231Z,7.20
2022-07-25T10:50:14.423Z,6.55
2022-07-25T10:52:42.590Z,6.60
2022-07-25T10:55:10.581Z,6.70
2022-07-25T10:57:45.350Z,7.25
2022-07-25T11:00:22.976Z,7.90
2022-07-25T11:02:50.814Z,8.13
2022-07-25T11:05:18.868Z,8.02
2022-07-25T11:08:20.226Z,8.85
2022-07-25T11:10:52.727Z,6.97
2022-07-25T11:13:20.855Z,7.70
2022-07-25T11:15:48.855Z,7.95
2022-07-25T11:18:18.515Z,6.43
2022-07-25T11:20:46.401Z,7.18
2022-07-25T11:23:22.209Z,7.32
2022-07-25T11:25:51.494Z,7.55
2022-07-25T11:28:19.397Z,7.53
2022-07-25T11:30:47.602Z,8.60
2022-07-25T11:33:17.686Z,8.05
2022-07-25T11:35:46.502Z,6.40
2022-07-25T11:38:15.647Z,13.18
2022-07-25T11:40:45.007Z,7.65
2022-07-25T11:43:22.206Z,8.20
2022-07-25T11:46:06.938Z,7.28
2022-07-25T11:48:37.684Z,7.53
2022-07-25T11:51:19.163Z,10.23
2022-07-25T11:53:51.118Z,10.25
2022-07-25T11:56:41.858Z,7.28
2022-07-25T11:59:11.335Z,7.68
2022-07-25T12:01:43.861Z,7.85
2022-07-25T12:04:17.760Z,7.82
2022-07-25T12:06:48.823Z,8.32
2022-07-25T12:09:21.191Z,7.50
2022-07-25T12:11:50.703Z,7.88
2022-07-25T12:14:18.759Z,9.23
2022-07-25T12:16:46.670Z,7.50
2022-07-25T12:19:23.118Z,7.18
2022-07-25T12:21:50.922Z,9.90
2022-07-25T12:24:18.690Z,8.23
2022-07-25T12:26:46.589Z,7.47
2022-07-25T12:29:14.369Z,7.95
2022-07-25T12:31:42.177Z,7.85
2022-07-25T12:34:09.949Z,8.43
2022-07-25T12:36:44.064Z,7.68
2022-07-25T12:39:12.274Z,8.45
2022-07-25T12:41:42.582Z,8.43
2022-07-25T12:44:10.689Z,8.38
2022-07-25T12:46:40.346Z,8.75
2022-07-25T12:49:08.633Z,8.15
2022-07-25T12:51:36.726Z,8.07
2022-07-25T12:54:04.990Z,8.27
2022-07-25T12:56:33.051Z,8.85
2022-07-25T12:59:02.515Z,7.95
2022-07-25T13:01:30.338Z,7.95
2022-07-25T13:03:58.085Z,7.40
2022-07-25T13:06:25.937Z,8.68
2022-07-25T13:08:53.673Z,9.32
2022-07-25T13:11:21.471Z,8.27
2022-07-25T13:13:49.315Z,9.32
2022-07-25T13:16:17.323Z,9.82
2022-07-25T13:18:45.326Z,8.20
2022-07-25T13:21:15.280Z,8.63
2022-07-25T13:23:43.849Z,8.10
2022-07-25T13:26:11.675Z,9.07
2022-07-25T13:28:39.566Z,8.23
2022-07-25T13:31:08.005Z,8.13
2022-07-25T13:33:35.765Z,7.97
2022-07-25T13:36:03.966Z,9.07
2022-07-25T13:38:31.766Z,9.05
2022-07-25T13:40:59.603Z,7.20
2022-07-25T13:43:27.462Z,7.95
2022-07-25T13:45:55.423Z,7.95
2022-07-25T13:48:30.834Z,7.82
2022-07-25T13:50:59.688Z,8.82
2022-07-25T13:53:30.329Z,7.60
2022-07-25T13:56:00.910Z,9.38
2022-07-25T13:58:29.320Z,8.05
2022-07-25T14:00:57.162Z,8.07
2022-07-25T14:03:24.995Z,14.63
2022-07-25T14:05:52.886Z,19.63
2022-07-25T14:08:20.783Z,13.45
2022-07-25T14:10:48.592Z,11.80
2022-07-25T14:13:16.378Z,13.52
2022-07-25T14:16:35.002Z,12.77
2022-07-25T14:19:02.959Z,10.88
2022-07-25T14:21:31.321Z,10.43
2022-07-25T14:23:59.363Z,9.57
2022-07-25T14:26:28.361Z,10.77
2022-07-25T14:28:56.550Z,10.13
2022-07-25T14:31:24.487Z,11.40
2022-07-25T14:33:52.566Z,10.07
2022-07-25T14:36:20.428Z,9.20
2022-07-25T14:38:48.468Z,9.93
2022-07-25T14:41:16.473Z,9.57
2022-07-25T14:43:44.318Z,9.15
2022-07-25T14:46:12.278Z,9.80
2022-07-25T14:48:40.147Z,9.63
2022-07-25T14:51:08.357Z,8.73
2022-07-25T14:53:37.044Z,9.43
2022-07-25T14:56:07.654Z,8.73
2022-07-25T14:58:36.143Z,8.90
2022-07-25T15:01:04.287Z,10.15
2022-07-25T15:03:32.172Z,8.43
2022-07-25T15:06:00.336Z,9.52
2022-07-25T15:08:29.395Z,10.77
2022-07-25T15:10:57.365Z,9.15
2022-07-25T15:13:32.859Z,8.45
2022-07-25T15:16:03.078Z,8.93
2022-07-25T15:18:31.826Z,8.30
2022-07-25T15:20:59.833Z,8.48
2022-07-25T15:23:30.358Z,9.27
2022-07-25T15:26:02.333Z,7.75
2022-07-25T15:28:34.029Z,8.38
2022-07-25T15:31:02.205Z,8.40
2022-07-25T15:33:30.322Z,9.77
2022-07-25T15:35:58.872Z,9.70
2022-07-25T15:38:27.264Z,8.50
2022-07-25T15:40:55.090Z,10.65
2022-07-25T15:43:23.329Z,8.93
2022-07-25T15:45:51.805Z,7.35
2022-07-25T15:48:19.747Z,10.15
2022-07-25T15:50:51.678Z,8.98
2022-07-25T15:53:20.216Z,9.25
2022-07-25T15:55:48.099Z,7.50
2022-07-25T15:58:16.015Z,8.30
2022-07-25T16:00:44.391Z,9.73
2022-07-25T16:03:13.821Z,7.95
2022-07-25T16:05:43.229Z,11.73
2022-07-25T16:08:11.211Z,8.50
2022-07-25T16:10:39.085Z,7.97
2022-07-25T16:13:07.517Z,8.18
2022-07-25T16:15:35.309Z,8.40
2022-07-25T16:18:03.418Z,7.18
2022-07-25T16:20:33.368Z,7.07
2022-07-25T16:23:02.178Z,9.18
2022-07-25T16:25:30.650Z,7.72
2022-07-25T16:27:59.918Z,7.38
2022-07-25T16:30:28.652Z,6.78
2022-07-25T16:32:56.449Z,8.18
2022-07-25T16:35:24.785Z,6.47
2022-07-25T16:37:52.894Z,7.32
2022-07-25T16:40:20.770Z,7.25
2022-07-25T16:42:50.273Z,7.13
2022-07-25T16:45:18.061Z,7.57
2022-07-25T16:47:45.868Z,8.90
2022-07-25T16:50:13.945Z,7.20
2022-07-25T16:52:41.697Z,7.20
2022-07-25T16:55:10.041Z,7.25
2022-07-25T16:57:38.940Z,7.10
2022-07-25T17:00:09.531Z,6.85
2022-07-25T17:02:37.726Z,7.38
2022-07-25T17:05:06.200Z,7.50
2022-07-25T17:07:34.907Z,7.32
2022-07-25T17:10:04.534Z,7.85
2022-07-25T17:12:32.495Z,6.63
2022-07-25T17:15:00.335Z,7.97
2022-07-25T17:17:28.379Z,8.65
2022-07-25T17:19:59.892Z,6.60
2022-07-25T17:22:28.017Z,7.05
2022-07-25T17:24:55.862Z,7.13
2022-07-25T17:27:25.922Z,7.18
2022-07-25T17:29:53.705Z,8.63
2022-07-25T17:32:24.953Z,7.07
2022-07-25T17:34:55.530Z,10.90
2022-07-25T17:37:24.464Z,6.93
2022-07-25T17:39:52.325Z,7.05
2022-07-25T17:42:22.401Z,7.55
2022-07-25T17:44:52.617Z,9.60
2022-07-25T17:47:20.607Z,8.65
2022-07-25T17:49:51.487Z,7.40
2022-07-25T17:52:19.346Z,6.90
2022-07-25T17:54:47.145Z,7.85
2022-07-25T17:57:14.992Z,8.40
2022-07-25T17:59:42.810Z,9.68
2022-07-25T18:02:10.664Z,9.65
2022-07-25T18:04:38.507Z,8.20
2022-07-25T18:07:06.481Z,7.03
2022-07-25T18:09:34.308Z,10.55
2022-07-25T18:12:02.735Z,6.45
2022-07-25T18:14:31.410Z,9.35
2022-07-25T18:16:59.475Z,6.82
2022-07-25T18:19:27.278Z,8.68
2022-07-25T18:21:55.052Z,7.80
2022-07-25T18:24:28.825Z,6.82
2022-07-25T18:26:59.505Z,11.63
2022-07-25T18:29:27.508Z,6.25
2022-07-25T18:31:55.461Z,6.18
2022-07-25T18:34:23.246Z,8.57
2022-07-25T18:36:51.119Z,8.73
2022-07-25T18:39:19.030Z,5.72
2022-07-25T18:41:46.867Z,8.52
2022-07-25T18:44:14.759Z,6.22
2022-07-25T18:46:45.750Z,6.50
2022-07-25T18:49:14.005Z,6.78
2022-07-25T18:51:41.948Z,5.65
2022-07-25T18:54:10.080Z,5.15
2022-07-25T18:56:38.338Z,6.82
2022-07-25T18:59:06.399Z,4.95
2022-07-25T19:01:35.838Z,6.38
2022-07-25T19:04:04.120Z,5.80
2022-07-25T19:06:32.432Z,5.13
2022-07-25T19:09:00.255Z,5.07
2022-07-25T19:11:28.076Z,4.90
2022-07-25T19:13:55.840Z,6.82
2022-07-25T19:16:25.566Z,4.43
2022-07-25T19:18:53.666Z,5.00
2022-07-25T19:21:21.472Z,8.13
2022-07-25T19:23:51.268Z,4.90
2022-07-25T19:26:21.070Z,5.07
2022-07-25T19:28:50.296Z,8.65
2022-07-25T19:31:18.276Z,4.82
2022-07-25T19:33:46.263Z,5.22
2022-07-25T19:36:14.580Z,6.38
2022-07-25T19:38:42.683Z,6.72
2022-07-25T19:41:10.580Z,4.78
2022-07-25T19:43:38.447Z,5.82
2022-07-25T19:46:06.902Z,5.38
2022-07-25T19:48:34.974Z,5.65
2022-07-25T19:51:03.222Z,7.13
2022-07-25T19:53:32.200Z,7.38
2022-07-25T19:56:00.294Z,5.22
2022-07-25T19:58:28.191Z,4.05
2022-07-25T20:00:56.144Z,8.60
2022-07-25T20:03:24.002Z,6.40
2022-07-25T20:05:52.177Z,4.75
2022-07-25T20:08:20.047Z,6.25
2022-07-25T20:10:48.478Z,6.32
2022-07-25T20:13:16.414Z,7.88
2022-07-25T20:15:44.698Z,5.47
2022-07-25T20:18:18.797Z,5.82
2022-07-25T20:20:47.735Z,4.63
2022-07-25T20:23:15.623Z,4.20
2022-07-25T20:25:43.516Z,5.78
2022-07-25T20:28:11.460Z,4.28
2022-07-25T20:30:39.664Z,5.35
2022-07-25T20:33:09.550Z,4.95
2022-07-25T20:35:38.661Z,3.90
2022-07-25T20:38:08.982Z,7.35
2022-07-25T20:40:49.281Z,4.53
2022-07-25T20:43:18.791Z,7.00
2022-07-25T20:45:47.454Z,6.65
2022-07-25T20:48:15.952Z,6.40
2022-07-25T20:50:44.583Z,4.93
2022-07-25T20:53:13.127Z,6.93
2022-07-25T20:55:41.029Z,4.13
2022-07-25T20:58:08.868Z,6.10
2022-07-25T21:00:36.734Z,4.50
2022-07-25T21:03:05.190Z,6.20
2022-07-25T21:05:40.462Z,4.13
2022-07-25T21:08:08.370Z,3.33
2022-07-25T21:10:36.495Z,4.03
2022-07-25T21:13:04.317Z,6.50
2022-07-25T21:15:32.439Z,6.10
2022-07-25T21:18:00.816Z,4.78
2022-07-25T21:20:28.954Z,4.90
2022-07-25T21:22:56.847Z,3.88
2022-07-25T21:25:24.797Z,6.13
2022-07-25T21:27:52.715Z,4.13
2022-07-25T21:30:20.555Z,4.25
2022-07-25T21:32:48.364Z,3.70
2022-07-25T21:35:16.233Z,3.67
2022-07-25T21:37:44.274Z,4.78
2022-07-25T21:40:12.232Z,4.55
2022-07-25T21:42:39.989Z,6.28
2022-07-25T21:45:08.509Z,5.38
2022-07-25T21:47:36.395Z,4.20
2022-07-25T21:50:25.112Z,3.13
2022-07-25T21:52:53.978Z,6.07
2022-07-25T21:55:22.526Z,4.05
2022-07-25T21:57:51.481Z,4.32
2022-07-25T22:00:20.360Z,7.95
2022-07-25T22:02:48.368Z,3.63
2022-07-25T22:05:18.888Z,7.22
2022-07-25T22:07:47.346Z,3.72
2022-07-25T22:10:18.256Z,4.70
2022-07-25T22:12:46.632Z,4.60
2022-07-25T22:15:14.849Z,4.45
2022-07-25T22:17:48.481Z,8.90
2022-07-25T22:20:19.643Z,7.15
2022-07-25T22:22:48.715Z,4.10
2022-07-25T22:25:17.520Z,5.22
2022-07-25T22:27:45.384Z,3.45
2022-07-25T22:30:18.806Z,4.20
2022-07-25T22:32:50.546Z,4.63
2022-07-25T22:35:18.743Z,4.70
2022-07-25T22:37:46.840Z,4.75
2022-07-25T22:40:14.862Z,3.53
2022-07-25T22:42:42.846Z,3.58
2022-07-25T22:45:11.141Z,3.95
2022-07-25T22:47:39.211Z,3.75
2022-07-25T22:50:08.843Z,3.47
2022-07-25T22:52:36.699Z,3.60
2022-07-25T22:55:05.024Z,3.92
2022-07-25T22:57:36.766Z,3.45
2022-07-25T23:00:11.952Z,3.22
2022-07-25T23:02:40.467Z,4.32
2022-07-25T23:05:09.378Z,5.07
2022-07-25T23:07:37.653Z,5.38
2022-07-25T23:10:07.057Z,4.90
2022-07-25T23:12:35.279Z,4.32
2022-07-25T23:15:03.829Z,6.80
2022-07-25T23:17:31.674Z,3.53
2022-07-25T23:19:59.575Z,4.43
2022-07-25T23:22:28.987Z,3.90
2022-07-25T23:24:58.515Z,2.92
2022-07-25T23:27:26.653Z,3.45
2022-07-25T23:29:54.486Z,2.85
2022-07-25T23:32:22.322Z,5.10
2022-07-25T23:34:50.238Z,3.28
2022-07-25T23:37:18.095Z,3.90
2022-07-25T23:39:45.884Z,4.38
2022-07-25T23:42:13.730Z,3.30
2022-07-25T23:44:42.217Z,6.20
2022-07-25T23:47:12.480Z,4.55
2022-07-25T23:49:41.040Z,2.45
2022-07-25T23:52:08.926Z,4.15
2022-07-25T23:54:38.311Z,2.50
2022-07-25T23:57:07.241Z,6.47
2022-07-25T23:59:36.205Z,3.22
